sensor_id;sensor_type;location;lat;lon;timestamp;P1;durP1;ratioP1;P2;durP2;ratioP2
20322;SDS011;10319;52.206;20.996;2022-08-20T00:01:43;9.43;;;2.30;;
20322;SDS011;10319;52.206;20.996;2022-08-20T00:04:08;9.45;;;2.30;;
20322;SDS011;10319;52.206;20.996;2022-08-20T00:06:33;9.23;;;2.53;;
20322;SDS011;10319;52.206;20.996;2022-08-20T00:08:58;10.77;;;2.50;;
20322;SDS011;10319;52.206;20.996;2022-08-20T00:11:24;7.88;;;2.17;;
20322;SDS011;10319;52.206;20.996;2022-08-20T00:13:51;6.90;;;2.00;;
20322;SDS011;10319;52.206;20.996;2022-08-20T00:16:17;8.77;;;2.40;;
20322;SDS011;10319;52.206;20.996;2022-08-20T00:18:43;10.35;;;2.25;;
20322;SDS011;10319;52.206;20.996;2022-08-20T00:21:15;8.43;;;2.22;;
20322;SDS011;10319;52.206;20.996;2022-08-20T00:23:42;7.82;;;2.10;;
20322;SDS011;10319;52.206;20.996;2022-08-20T00:26:08;6.80;;;1.98;;
20322;SDS011;10319;52.206;20.996;2022-08-20T00:28:34;7.70;;;2.00;;
20322;SDS011;10319;52.206;20.996;2022-08-20T00:31:02;7.55;;;1.90;;
20322;SDS011;10319;52.206;20.996;2022-08-20T00:33:27;9.60;;;2.10;;
20322;SDS011;10319;52.206;20.996;2022-08-20T00:35:54;10.65;;;2.60;;
20322;SDS011;10319;52.206;20.996;2022-08-20T00:38:20;8.13;;;1.80;;
20322;SDS011;10319;52.206;20.996;2022-08-20T00:40:47;9.07;;;2.20;;
20322;SDS011;10319;52.206;20.996;2022-08-20T00:45:51;7.90;;;2.10;;
20322;SDS011;10319;52.206;20.996;2022-08-20T00:48:20;9.13;;;2.20;;
20322;SDS011;10319;52.206;20.996;2022-08-20T00:50:46;9.25;;;2.30;;
20322;SDS011;10319;52.206;20.996;2022-08-20T00:53:11;6.38;;;2.10;;
20322;SDS011;10319;52.206;20.996;2022-08-20T00:55:36;11.20;;;2.80;;
20322;SDS011;10319;52.206;20.996;2022-08-20T00:58:04;10.93;;;2.50;;
20322;SDS011;10319;52.206;20.996;2022-08-20T01:00:34;7.82;;;2.08;;
20322;SDS011;10319;52.206;20.996;2022-08-20T01:03:02;6.90;;;2.08;;
20322;SDS011;10319;52.206;20.996;2022-08-20T01:05:27;12.38;;;2.35;;
20322;SDS011;10319;52.206;20.996;2022-08-20T01:07:53;9.55;;;2.20;;
20322;SDS011;10319;52.206;20.996;2022-08-20T01:10:24;10.65;;;2.50;;
20322;SDS011;10319;52.206;20.996;2022-08-20T01:12:50;8.60;;;2.38;;
20322;SDS011;10319;52.206;20.996;2022-08-20T01:15:17;12.48;;;2.65;;
20322;SDS011;10319;52.206;20.996;2022-08-20T01:17:47;9.10;;;2.22;;
20322;SDS011;10319;52.206;20.996;2022-08-20T01:20:56;8.85;;;2.50;;
20322;SDS011;10319;52.206;20.996;2022-08-20T01:26:07;8.13;;;2.40;;
20322;SDS011;10319;52.206;20.996;2022-08-20T01:30:58;13.27;;;2.70;;
20322;SDS011;10319;52.206;20.996;2022-08-20T01:33:23;7.78;;;2.00;;
20322;SDS011;10319;52.206;20.996;2022-08-20T01:35:50;9.73;;;2.50;;
20322;SDS011;10319;52.206;20.996;2022-08-20T01:38:16;9.55;;;2.40;;
20322;SDS011;10319;52.206;20.996;2022-08-20T01:43:12;7.53;;;2.20;;
20322;SDS011;10319;52.206;20.996;2022-08-20T01:45:38;9.20;;;2.63;;
20322;SDS011;10319;52.206;20.996;2022-08-20T01:48:03;9.80;;;2.20;;
20322;SDS011;10319;52.206;20.996;2022-08-20T01:50:29;9.27;;;2.22;;
20322;SDS011;10319;52.206;20.996;2022-08-20T01:52:58;10.38;;;2.50;;
20322;SDS011;10319;52.206;20.996;2022-08-20T01:55:25;8.98;;;2.35;;
20322;SDS011;10319;52.206;20.996;2022-08-20T01:57:51;9.98;;;2.60;;
20322;SDS011;10319;52.206;20.996;2022-08-20T02:00:17;10.73;;;2.53;;
20322;SDS011;10319;52.206;20.996;2022-08-20T02:02:43;9.75;;;2.40;;
20322;SDS011;10319;52.206;20.996;2022-08-20T02:05:08;7.38;;;2.28;;
20322;SDS011;10319;52.206;20.996;2022-08-20T02:07:34;5.63;;;1.90;;
20322;SDS011;10319;52.206;20.996;2022-08-20T02:09:59;10.20;;;2.47;;
20322;SDS011;10319;52.206;20.996;2022-08-20T02:12:25;8.32;;;2.28;;
20322;SDS011;10319;52.206;20.996;2022-08-20T02:14:51;9.45;;;2.60;;
20322;SDS011;10319;52.206;20.996;2022-08-20T02:17:17;10.00;;;2.40;;
20322;SDS011;10319;52.206;20.996;2022-08-20T02:19:53;7.82;;;2.25;;
20322;SDS011;10319;52.206;20.996;2022-08-20T02:22:23;9.82;;;2.50;;
20322;SDS011;10319;52.206;20.996;2022-08-20T02:24:51;11.27;;;2.58;;
20322;SDS011;10319;52.206;20.996;2022-08-20T02:27:16;9.65;;;2.53;;
20322;SDS011;10319;52.206;20.996;2022-08-20T02:29:42;9.43;;;2.63;;
20322;SDS011;10319;52.206;20.996;2022-08-20T02:32:08;9.25;;;2.60;;
20322;SDS011;10319;52.206;20.996;2022-08-20T02:34:34;8.77;;;2.60;;
20322;SDS011;10319;52.206;20.996;2022-08-20T02:36:59;9.18;;;2.50;;
20322;SDS011;10319;52.206;20.996;2022-08-20T02:39:24;8.60;;;2.53;;
20322;SDS011;10319;52.206;20.996;2022-08-20T02:41:50;9.00;;;2.40;;
20322;SDS011;10319;52.206;20.996;2022-08-20T02:44:15;8.68;;;2.28;;
20322;SDS011;10319;52.206;20.996;2022-08-20T02:46:42;8.90;;;2.40;;
20322;SDS011;10319;52.206;20.996;2022-08-20T02:49:07;6.07;;;2.10;;
20322;SDS011;10319;52.206;20.996;2022-08-20T02:51:33;9.47;;;2.57;;
20322;SDS011;10319;52.206;20.996;2022-08-20T02:53:58;9.20;;;2.43;;
20322;SDS011;10319;52.206;20.996;2022-08-20T02:56:23;9.63;;;2.80;;
20322;SDS011;10319;52.206;20.996;2022-08-20T02:58:48;9.90;;;2.70;;
20322;SDS011;10319;52.206;20.996;2022-08-20T03:01:14;10.15;;;2.72;;
20322;SDS011;10319;52.206;20.996;2022-08-20T03:03:40;10.20;;;2.47;;
20322;SDS011;10319;52.206;20.996;2022-08-20T03:06:05;7.93;;;2.40;;
20322;SDS011;10319;52.206;20.996;2022-08-20T03:08:32;11.10;;;3.00;;
20322;SDS011;10319;52.206;20.996;2022-08-20T03:10:57;8.25;;;2.72;;
20322;SDS011;10319;52.206;20.996;2022-08-20T03:13:23;8.57;;;2.53;;
20322;SDS011;10319;52.206;20.996;2022-08-20T03:15:52;10.07;;;2.85;;
20322;SDS011;10319;52.206;20.996;2022-08-20T03:18:18;12.00;;;3.00;;
20322;SDS011;10319;52.206;20.996;2022-08-20T03:20:44;9.93;;;2.80;;
20322;SDS011;10319;52.206;20.996;2022-08-20T03:23:09;11.13;;;2.53;;
20322;SDS011;10319;52.206;20.996;2022-08-20T03:25:35;11.23;;;2.75;;
20322;SDS011;10319;52.206;20.996;2022-08-20T03:28:00;8.20;;;2.40;;
20322;SDS011;10319;52.206;20.996;2022-08-20T03:30:26;11.10;;;2.80;;
20322;SDS011;10319;52.206;20.996;2022-08-20T03:32:52;7.88;;;2.60;;
20322;SDS011;10319;52.206;20.996;2022-08-20T03:35:17;8.55;;;2.50;;
20322;SDS011;10319;52.206;20.996;2022-08-20T03:37:43;12.88;;;3.35;;
20322;SDS011;10319;52.206;20.996;2022-08-20T03:40:10;11.15;;;3.20;;
20322;SDS011;10319;52.206;20.996;2022-08-20T03:42:36;11.15;;;3.15;;
20322;SDS011;10319;52.206;20.996;2022-08-20T03:45:03;8.90;;;2.70;;
20322;SDS011;10319;52.206;20.996;2022-08-20T03:47:28;11.23;;;2.63;;
20322;SDS011;10319;52.206;20.996;2022-08-20T03:49:57;10.47;;;2.77;;
20322;SDS011;10319;52.206;20.996;2022-08-20T03:52:22;9.18;;;3.05;;
20322;SDS011;10319;52.206;20.996;2022-08-20T03:54:48;8.95;;;2.67;;
20322;SDS011;10319;52.206;20.996;2022-08-20T03:57:14;10.23;;;3.00;;
20322;SDS011;10319;52.206;20.996;2022-08-20T03:59:40;9.95;;;2.83;;
20322;SDS011;10319;52.206;20.996;2022-08-20T04:02:05;10.25;;;2.90;;
20322;SDS011;10319;52.206;20.996;2022-08-20T04:04:31;13.20;;;2.90;;
20322;SDS011;10319;52.206;20.996;2022-08-20T04:06:56;16.17;;;3.25;;
20322;SDS011;10319;52.206;20.996;2022-08-20T04:09:21;13.47;;;2.97;;
20322;SDS011;10319;52.206;20.996;2022-08-20T04:11:46;13.43;;;3.40;;
20322;SDS011;10319;52.206;20.996;2022-08-20T04:14:11;10.82;;;2.80;;
20322;SDS011;10319;52.206;20.996;2022-08-20T04:16:37;10.35;;;2.83;;
20322;SDS011;10319;52.206;20.996;2022-08-20T04:19:04;11.48;;;3.33;;
20322;SDS011;10319;52.206;20.996;2022-08-20T04:21:30;9.55;;;2.75;;
20322;SDS011;10319;52.206;20.996;2022-08-20T04:23:56;11.68;;;3.03;;
20322;SDS011;10319;52.206;20.996;2022-08-20T04:26:21;12.38;;;3.13;;
20322;SDS011;10319;52.206;20.996;2022-08-20T04:28:46;11.95;;;3.10;;
20322;SDS011;10319;52.206;20.996;2022-08-20T04:31:11;10.47;;;3.00;;
20322;SDS011;10319;52.206;20.996;2022-08-20T04:33:38;11.88;;;3.33;;
20322;SDS011;10319;52.206;20.996;2022-08-20T04:36:03;12.88;;;2.97;;
20322;SDS011;10319;52.206;20.996;2022-08-20T04:38:29;10.85;;;3.00;;
20322;SDS011;10319;52.206;20.996;2022-08-20T04:40:55;10.00;;;2.67;;
20322;SDS011;10319;52.206;20.996;2022-08-20T04:43:34;11.77;;;3.08;;
20322;SDS011;10319;52.206;20.996;2022-08-20T04:46:01;12.40;;;3.10;;
20322;SDS011;10319;52.206;20.996;2022-08-20T04:48:29;11.25;;;2.78;;
20322;SDS011;10319;52.206;20.996;2022-08-20T04:50:55;11.27;;;3.10;;
20322;SDS011;10319;52.206;20.996;2022-08-20T04:53:22;13.82;;;3.10;;
20322;SDS011;10319;52.206;20.996;2022-08-20T04:55:47;12.50;;;3.58;;
20322;SDS011;10319;52.206;20.996;2022-08-20T04:58:17;13.75;;;3.20;;
20322;SDS011;10319;52.206;20.996;2022-08-20T05:00:49;11.05;;;3.20;;
20322;SDS011;10319;52.206;20.996;2022-08-20T05:03:15;12.98;;;3.15;;
20322;SDS011;10319;52.206;20.996;2022-08-20T05:05:41;10.70;;;3.03;;
20322;SDS011;10319;52.206;20.996;2022-08-20T05:08:06;11.65;;;3.22;;
20322;SDS011;10319;52.206;20.996;2022-08-20T05:10:31;10.80;;;3.13;;
20322;SDS011;10319;52.206;20.996;2022-08-20T05:12:57;14.15;;;3.20;;
20322;SDS011;10319;52.206;20.996;2022-08-20T05:15:22;10.82;;;3.17;;
20322;SDS011;10319;52.206;20.996;2022-08-20T05:17:53;12.88;;;2.97;;
20322;SDS011;10319;52.206;20.996;2022-08-20T05:20:19;11.70;;;3.33;;
20322;SDS011;10319;52.206;20.996;2022-08-20T05:22:44;13.98;;;3.35;;
20322;SDS011;10319;52.206;20.996;2022-08-20T05:25:09;12.38;;;3.47;;
20322;SDS011;10319;52.206;20.996;2022-08-20T05:27:34;12.65;;;3.63;;
20322;SDS011;10319;52.206;20.996;2022-08-20T05:30:01;14.32;;;3.38;;
20322;SDS011;10319;52.206;20.996;2022-08-20T05:32:30;12.75;;;3.40;;
20322;SDS011;10319;52.206;20.996;2022-08-20T05:34:56;11.65;;;3.33;;
20322;SDS011;10319;52.206;20.996;2022-08-20T05:37:21;12.38;;;3.65;;
20322;SDS011;10319;52.206;20.996;2022-08-20T05:39:47;12.38;;;3.50;;
20322;SDS011;10319;52.206;20.996;2022-08-20T05:42:12;13.23;;;3.40;;
20322;SDS011;10319;52.206;20.996;2022-08-20T05:44:37;11.20;;;2.90;;
20322;SDS011;10319;52.206;20.996;2022-08-20T05:47:03;12.00;;;3.35;;
20322;SDS011;10319;52.206;20.996;2022-08-20T05:49:28;11.65;;;3.35;;
20322;SDS011;10319;52.206;20.996;2022-08-20T05:51:53;11.77;;;3.42;;
20322;SDS011;10319;52.206;20.996;2022-08-20T05:54:19;11.17;;;3.20;;
20322;SDS011;10319;52.206;20.996;2022-08-20T05:56:45;13.95;;;3.10;;
20322;SDS011;10319;52.206;20.996;2022-08-20T05:59:10;10.00;;;3.05;;
20322;SDS011;10319;52.206;20.996;2022-08-20T06:01:37;12.30;;;3.42;;
20322;SDS011;10319;52.206;20.996;2022-08-20T06:04:03;10.18;;;3.10;;
20322;SDS011;10319;52.206;20.996;2022-08-20T06:06:47;10.93;;;3.47;;
20322;SDS011;10319;52.206;20.996;2022-08-20T06:09:15;12.70;;;3.33;;
20322;SDS011;10319;52.206;20.996;2022-08-20T06:11:41;12.15;;;3.55;;
20322;SDS011;10319;52.206;20.996;2022-08-20T06:14:06;12.18;;;3.30;;
20322;SDS011;10319;52.206;20.996;2022-08-20T06:16:31;11.18;;;2.95;;
20322;SDS011;10319;52.206;20.996;2022-08-20T06:18:57;11.73;;;3.60;;
20322;SDS011;10319;52.206;20.996;2022-08-20T06:21:22;11.48;;;3.40;;
20322;SDS011;10319;52.206;20.996;2022-08-20T06:23:48;11.13;;;3.15;;
20322;SDS011;10319;52.206;20.996;2022-08-20T06:26:13;12.55;;;3.22;;
20322;SDS011;10319;52.206;20.996;2022-08-20T06:28:38;10.38;;;3.35;;
20322;SDS011;10319;52.206;20.996;2022-08-20T06:31:04;11.40;;;3.43;;
20322;SDS011;10319;52.206;20.996;2022-08-20T06:33:29;10.90;;;3.28;;
20322;SDS011;10319;52.206;20.996;2022-08-20T06:35:54;14.33;;;3.60;;
20322;SDS011;10319;52.206;20.996;2022-08-20T06:38:20;10.88;;;3.47;;
20322;SDS011;10319;52.206;20.996;2022-08-20T06:40:45;12.48;;;3.40;;
20322;SDS011;10319;52.206;20.996;2022-08-20T06:43:10;14.90;;;3.65;;
20322;SDS011;10319;52.206;20.996;2022-08-20T06:45:36;15.18;;;3.63;;
20322;SDS011;10319;52.206;20.996;2022-08-20T06:48:04;12.98;;;3.30;;
20322;SDS011;10319;52.206;20.996;2022-08-20T06:50:31;9.98;;;3.28;;
20322;SDS011;10319;52.206;20.996;2022-08-20T06:52:57;13.43;;;3.45;;
20322;SDS011;10319;52.206;20.996;2022-08-20T06:55:23;12.23;;;3.55;;
20322;SDS011;10319;52.206;20.996;2022-08-20T06:58:21;12.40;;;3.53;;
20322;SDS011;10319;52.206;20.996;2022-08-20T07:00:41;11.30;;;3.25;;
20322;SDS011;10319;52.206;20.996;2022-08-20T07:03:07;11.38;;;3.63;;
20322;SDS011;10319;52.206;20.996;2022-08-20T07:05:33;12.13;;;3.20;;
20322;SDS011;10319;52.206;20.996;2022-08-20T07:07:59;10.65;;;3.15;;
20322;SDS011;10319;52.206;20.996;2022-08-20T07:10:25;11.57;;;3.53;;
20322;SDS011;10319;52.206;20.996;2022-08-20T07:12:50;12.15;;;3.45;;
20322;SDS011;10319;52.206;20.996;2022-08-20T07:15:16;13.50;;;3.40;;
20322;SDS011;10319;52.206;20.996;2022-08-20T07:17:41;11.75;;;3.30;;
20322;SDS011;10319;52.206;20.996;2022-08-20T07:20:11;13.43;;;3.65;;
20322;SDS011;10319;52.206;20.996;2022-08-20T07:22:37;11.18;;;3.25;;
20322;SDS011;10319;52.206;20.996;2022-08-20T07:25:02;11.65;;;3.45;;
20322;SDS011;10319;52.206;20.996;2022-08-20T07:27:28;12.18;;;3.40;;
20322;SDS011;10319;52.206;20.996;2022-08-20T07:29:53;10.77;;;3.10;;
20322;SDS011;10319;52.206;20.996;2022-08-20T07:32:37;11.48;;;3.40;;
20322;SDS011;10319;52.206;20.996;2022-08-20T07:35:03;11.18;;;3.10;;
20322;SDS011;10319;52.206;20.996;2022-08-20T07:37:29;11.50;;;3.40;;
20322;SDS011;10319;52.206;20.996;2022-08-20T07:39:54;11.13;;;3.20;;
20322;SDS011;10319;52.206;20.996;2022-08-20T07:42:19;14.47;;;3.63;;
20322;SDS011;10319;52.206;20.996;2022-08-20T07:44:44;10.95;;;3.17;;
20322;SDS011;10319;52.206;20.996;2022-08-20T07:47:09;12.67;;;3.63;;
20322;SDS011;10319;52.206;20.996;2022-08-20T07:49:36;12.27;;;3.30;;
20322;SDS011;10319;52.206;20.996;2022-08-20T07:52:02;11.35;;;3.40;;
20322;SDS011;10319;52.206;20.996;2022-08-20T07:54:27;11.95;;;3.38;;
20322;SDS011;10319;52.206;20.996;2022-08-20T07:56:53;13.07;;;3.42;;
20322;SDS011;10319;52.206;20.996;2022-08-20T07:59:18;9.10;;;2.88;;
20322;SDS011;10319;52.206;20.996;2022-08-20T08:01:44;9.27;;;2.78;;
20322;SDS011;10319;52.206;20.996;2022-08-20T08:04:09;12.15;;;3.35;;
20322;SDS011;10319;52.206;20.996;2022-08-20T08:06:35;11.45;;;3.17;;
20322;SDS011;10319;52.206;20.996;2022-08-20T08:09:02;10.50;;;3.23;;
20322;SDS011;10319;52.206;20.996;2022-08-20T08:11:28;10.95;;;3.42;;
20322;SDS011;10319;52.206;20.996;2022-08-20T08:13:53;9.63;;;3.13;;
20322;SDS011;10319;52.206;20.996;2022-08-20T08:16:18;12.35;;;3.03;;
20322;SDS011;10319;52.206;20.996;2022-08-20T08:18:46;11.10;;;2.65;;
20322;SDS011;10319;52.206;20.996;2022-08-20T08:21:14;13.55;;;3.38;;
20322;SDS011;10319;52.206;20.996;2022-08-20T08:23:40;12.90;;;3.10;;
20322;SDS011;10319;52.206;20.996;2022-08-20T08:26:12;12.05;;;3.08;;
20322;SDS011;10319;52.206;20.996;2022-08-20T08:28:38;10.95;;;3.15;;
20322;SDS011;10319;52.206;20.996;2022-08-20T08:31:03;10.55;;;3.00;;
20322;SDS011;10319;52.206;20.996;2022-08-20T08:33:29;11.52;;;3.50;;
20322;SDS011;10319;52.206;20.996;2022-08-20T08:36:03;11.07;;;3.35;;
20322;SDS011;10319;52.206;20.996;2022-08-20T08:38:29;11.18;;;3.50;;
20322;SDS011;10319;52.206;20.996;2022-08-20T08:40:55;11.02;;;3.33;;
20322;SDS011;10319;52.206;20.996;2022-08-20T08:43:22;12.00;;;3.20;;
20322;SDS011;10319;52.206;20.996;2022-08-20T08:45:51;11.18;;;3.00;;
20322;SDS011;10319;52.206;20.996;2022-08-20T08:48:18;9.43;;;2.78;;
20322;SDS011;10319;52.206;20.996;2022-08-20T08:50:45;11.32;;;3.20;;
20322;SDS011;10319;52.206;20.996;2022-08-20T08:53:14;12.73;;;3.10;;
20322;SDS011;10319;52.206;20.996;2022-08-20T08:55:40;11.77;;;2.80;;
20322;SDS011;10319;52.206;20.996;2022-08-20T08:58:05;11.30;;;3.03;;
20322;SDS011;10319;52.206;20.996;2022-08-20T09:00:31;14.30;;;3.27;;
20322;SDS011;10319;52.206;20.996;2022-08-20T09:03:00;13.23;;;3.08;;
20322;SDS011;10319;52.206;20.996;2022-08-20T09:05:28;9.30;;;2.72;;
20322;SDS011;10319;52.206;20.996;2022-08-20T09:07:55;11.32;;;3.20;;
20322;SDS011;10319;52.206;20.996;2022-08-20T09:10:21;11.55;;;2.75;;
20322;SDS011;10319;52.206;20.996;2022-08-20T09:12:46;13.48;;;2.97;;
20322;SDS011;10319;52.206;20.996;2022-08-20T09:15:11;12.50;;;3.40;;
20322;SDS011;10319;52.206;20.996;2022-08-20T09:17:37;13.25;;;3.08;;
20322;SDS011;10319;52.206;20.996;2022-08-20T09:20:02;13.07;;;3.23;;
20322;SDS011;10319;52.206;20.996;2022-08-20T09:22:28;12.10;;;2.97;;
20322;SDS011;10319;52.206;20.996;2022-08-20T09:24:53;10.32;;;2.97;;
20322;SDS011;10319;52.206;20.996;2022-08-20T09:27:18;7.90;;;2.58;;
20322;SDS011;10319;52.206;20.996;2022-08-20T09:29:44;15.15;;;3.20;;
20322;SDS011;10319;52.206;20.996;2022-08-20T09:34:35;10.75;;;2.80;;
20322;SDS011;10319;52.206;20.996;2022-08-20T09:37:01;12.05;;;2.80;;
20322;SDS011;10319;52.206;20.996;2022-08-20T09:39:26;12.27;;;3.37;;
20322;SDS011;10319;52.206;20.996;2022-08-20T09:41:51;11.30;;;2.80;;
20322;SDS011;10319;52.206;20.996;2022-08-20T09:44:16;11.63;;;3.30;;
20322;SDS011;10319;52.206;20.996;2022-08-20T09:46:41;14.50;;;3.20;;
20322;SDS011;10319;52.206;20.996;2022-08-20T09:49:07;12.87;;;3.00;;
20322;SDS011;10319;52.206;20.996;2022-08-20T09:51:32;15.93;;;3.30;;
20322;SDS011;10319;52.206;20.996;2022-08-20T09:53:57;12.68;;;3.00;;
20322;SDS011;10319;52.206;20.996;2022-08-20T09:56:23;11.55;;;2.80;;
20322;SDS011;10319;52.206;20.996;2022-08-20T09:58:50;12.45;;;3.13;;
20322;SDS011;10319;52.206;20.996;2022-08-20T10:01:16;13.20;;;3.00;;
20322;SDS011;10319;52.206;20.996;2022-08-20T10:03:42;11.23;;;2.85;;
20322;SDS011;10319;52.206;20.996;2022-08-20T10:06:08;8.45;;;2.70;;
20322;SDS011;10319;52.206;20.996;2022-08-20T10:08:35;10.20;;;2.90;;
20322;SDS011;10319;52.206;20.996;2022-08-20T10:11:00;11.52;;;2.72;;
20322;SDS011;10319;52.206;20.996;2022-08-20T10:13:25;9.17;;;2.40;;
20322;SDS011;10319;52.206;20.996;2022-08-20T10:15:50;11.20;;;2.97;;
20322;SDS011;10319;52.206;20.996;2022-08-20T10:18:15;9.85;;;2.58;;
20322;SDS011;10319;52.206;20.996;2022-08-20T10:20:41;10.30;;;2.70;;
20322;SDS011;10319;52.206;20.996;2022-08-20T10:23:06;10.55;;;2.75;;
20322;SDS011;10319;52.206;20.996;2022-08-20T10:25:31;11.87;;;2.87;;
20322;SDS011;10319;52.206;20.996;2022-08-20T10:27:56;10.13;;;2.80;;
20322;SDS011;10319;52.206;20.996;2022-08-20T10:30:23;12.43;;;2.70;;
20322;SDS011;10319;52.206;20.996;2022-08-20T10:32:48;9.82;;;2.50;;
20322;SDS011;10319;52.206;20.996;2022-08-20T10:35:13;9.95;;;2.60;;
20322;SDS011;10319;52.206;20.996;2022-08-20T10:37:39;12.10;;;2.73;;
20322;SDS011;10319;52.206;20.996;2022-08-20T10:40:04;10.63;;;2.47;;
20322;SDS011;10319;52.206;20.996;2022-08-20T10:42:29;8.32;;;2.40;;
20322;SDS011;10319;52.206;20.996;2022-08-20T10:44:55;10.93;;;2.73;;
20322;SDS011;10319;52.206;20.996;2022-08-20T10:47:24;11.43;;;2.43;;
20322;SDS011;10319;52.206;20.996;2022-08-20T10:49:50;11.63;;;2.50;;
20322;SDS011;10319;52.206;20.996;2022-08-20T10:52:16;8.98;;;2.42;;
20322;SDS011;10319;52.206;20.996;2022-08-20T10:54:41;11.70;;;3.05;;
20322;SDS011;10319;52.206;20.996;2022-08-20T10:57:28;11.57;;;2.63;;
20322;SDS011;10319;52.206;20.996;2022-08-20T10:59:52;10.60;;;2.42;;
20322;SDS011;10319;52.206;20.996;2022-08-20T11:02:18;8.90;;;2.60;;
20322;SDS011;10319;52.206;20.996;2022-08-20T11:04:44;9.80;;;2.70;;
20322;SDS011;10319;52.206;20.996;2022-08-20T11:07:20;9.05;;;2.40;;
20322;SDS011;10319;52.206;20.996;2022-08-20T11:09:48;8.32;;;2.60;;
20322;SDS011;10319;52.206;20.996;2022-08-20T11:12:14;8.70;;;2.30;;
20322;SDS011;10319;52.206;20.996;2022-08-20T11:14:39;11.93;;;2.70;;
20322;SDS011;10319;52.206;20.996;2022-08-20T11:17:04;10.87;;;2.60;;
20322;SDS011;10319;52.206;20.996;2022-08-20T11:19:30;11.45;;;2.38;;
20322;SDS011;10319;52.206;20.996;2022-08-20T11:21:55;8.60;;;2.38;;
20322;SDS011;10319;52.206;20.996;2022-08-20T11:24:20;7.82;;;2.40;;
20322;SDS011;10319;52.206;20.996;2022-08-20T11:26:46;11.45;;;2.50;;
20322;SDS011;10319;52.206;20.996;2022-08-20T11:29:12;10.68;;;2.55;;
20322;SDS011;10319;52.206;20.996;2022-08-20T11:31:37;14.15;;;2.85;;
20322;SDS011;10319;52.206;20.996;2022-08-20T11:34:02;11.07;;;2.80;;
20322;SDS011;10319;52.206;20.996;2022-08-20T11:36:28;8.47;;;2.33;;
20322;SDS011;10319;52.206;20.996;2022-08-20T11:38:53;11.23;;;2.40;;
20322;SDS011;10319;52.206;20.996;2022-08-20T11:41:18;12.37;;;2.77;;
20322;SDS011;10319;52.206;20.996;2022-08-20T11:43:43;12.03;;;2.43;;
20322;SDS011;10319;52.206;20.996;2022-08-20T11:46:08;10.63;;;2.40;;
20322;SDS011;10319;52.206;20.996;2022-08-20T11:48:34;10.67;;;2.27;;
20322;SDS011;10319;52.206;20.996;2022-08-20T11:50:59;11.93;;;2.40;;
20322;SDS011;10319;52.206;20.996;2022-08-20T11:53:24;13.77;;;2.50;;
20322;SDS011;10319;52.206;20.996;2022-08-20T11:55:49;12.40;;;2.53;;
20322;SDS011;10319;52.206;20.996;2022-08-20T11:58:14;11.87;;;2.33;;
20322;SDS011;10319;52.206;20.996;2022-08-20T12:00:40;10.18;;;2.47;;
20322;SDS011;10319;52.206;20.996;2022-08-20T12:03:06;13.77;;;2.40;;
20322;SDS011;10319;52.206;20.996;2022-08-20T12:05:31;12.70;;;2.67;;
20322;SDS011;10319;52.206;20.996;2022-08-20T12:07:58;9.23;;;2.20;;
20322;SDS011;10319;52.206;20.996;2022-08-20T12:10:24;9.75;;;2.60;;
20322;SDS011;10319;52.206;20.996;2022-08-20T12:12:50;10.25;;;2.47;;
20322;SDS011;10319;52.206;20.996;2022-08-20T12:15:15;12.47;;;2.47;;
20322;SDS011;10319;52.206;20.996;2022-08-20T12:17:40;10.57;;;2.40;;
20322;SDS011;10319;52.206;20.996;2022-08-20T12:20:07;10.53;;;2.33;;
20322;SDS011;10319;52.206;20.996;2022-08-20T12:22:33;11.70;;;2.53;;
20322;SDS011;10319;52.206;20.996;2022-08-20T12:24:58;11.43;;;2.47;;
20322;SDS011;10319;52.206;20.996;2022-08-20T12:27:24;9.03;;;2.10;;
20322;SDS011;10319;52.206;20.996;2022-08-20T12:29:51;12.13;;;2.50;;
20322;SDS011;10319;52.206;20.996;2022-08-20T12:32:17;9.82;;;2.20;;
20322;SDS011;10319;52.206;20.996;2022-08-20T12:34:43;5.90;;;1.90;;
20322;SDS011;10319;52.206;20.996;2022-08-20T12:37:09;13.17;;;2.33;;
20322;SDS011;10319;52.206;20.996;2022-08-20T12:39:36;8.02;;;2.08;;
20322;SDS011;10319;52.206;20.996;2022-08-20T12:42:02;12.27;;;2.30;;
20322;SDS011;10319;52.206;20.996;2022-08-20T12:44:28;13.40;;;2.70;;
20322;SDS011;10319;52.206;20.996;2022-08-20T12:47:03;14.85;;;2.50;;
20322;SDS011;10319;52.206;20.996;2022-08-20T12:49:28;11.48;;;2.35;;
20322;SDS011;10319;52.206;20.996;2022-08-20T12:51:54;10.20;;;2.33;;
20322;SDS011;10319;52.206;20.996;2022-08-20T12:54:19;8.63;;;2.27;;
20322;SDS011;10319;52.206;20.996;2022-08-20T12:56:44;8.83;;;2.07;;
20322;SDS011;10319;52.206;20.996;2022-08-20T12:59:09;11.60;;;2.30;;
20322;SDS011;10319;52.206;20.996;2022-08-20T13:01:35;8.60;;;2.20;;
20322;SDS011;10319;52.206;20.996;2022-08-20T13:04:00;10.37;;;2.53;;
20322;SDS011;10319;52.206;20.996;2022-08-20T13:06:25;9.20;;;2.07;;
20322;SDS011;10319;52.206;20.996;2022-08-20T13:08:50;8.05;;;2.20;;
20322;SDS011;10319;52.206;20.996;2022-08-20T13:11:16;10.00;;;2.10;;
20322;SDS011;10319;52.206;20.996;2022-08-20T13:13:41;11.73;;;2.10;;
20322;SDS011;10319;52.206;20.996;2022-08-20T13:16:07;10.63;;;2.35;;
20322;SDS011;10319;52.206;20.996;2022-08-20T13:18:32;12.50;;;2.43;;
20322;SDS011;10319;52.206;20.996;2022-08-20T13:20:57;8.50;;;2.10;;
20322;SDS011;10319;52.206;20.996;2022-08-20T13:23:23;8.53;;;2.30;;
20322;SDS011;10319;52.206;20.996;2022-08-20T13:25:48;6.37;;;1.83;;
20322;SDS011;10319;52.206;20.996;2022-08-20T13:28:13;9.87;;;2.13;;
20322;SDS011;10319;52.206;20.996;2022-08-20T13:30:38;10.57;;;2.23;;
20322;SDS011;10319;52.206;20.996;2022-08-20T13:33:05;8.77;;;2.15;;
20322;SDS011;10319;52.206;20.996;2022-08-20T13:35:30;9.07;;;2.10;;
20322;SDS011;10319;52.206;20.996;2022-08-20T13:37:55;11.52;;;2.38;;
20322;SDS011;10319;52.206;20.996;2022-08-20T13:40:20;12.03;;;2.40;;
20322;SDS011;10319;52.206;20.996;2022-08-20T13:42:46;8.80;;;2.10;;
20322;SDS011;10319;52.206;20.996;2022-08-20T13:45:11;10.03;;;2.07;;
20322;SDS011;10319;52.206;20.996;2022-08-20T13:47:37;8.80;;;1.75;;
20322;SDS011;10319;52.206;20.996;2022-08-20T13:50:05;9.38;;;2.20;;
20322;SDS011;10319;52.206;20.996;2022-08-20T13:52:32;7.93;;;2.10;;
20322;SDS011;10319;52.206;20.996;2022-08-20T13:54:57;11.20;;;2.17;;
20322;SDS011;10319;52.206;20.996;2022-08-20T13:57:23;10.57;;;2.20;;
20322;SDS011;10319;52.206;20.996;2022-08-20T13:59:50;9.65;;;2.20;;
20322;SDS011;10319;52.206;20.996;2022-08-20T14:02:15;6.85;;;2.10;;
20322;SDS011;10319;52.206;20.996;2022-08-20T14:04:41;10.88;;;2.40;;
20322;SDS011;10319;52.206;20.996;2022-08-20T14:09:41;9.55;;;2.28;;
20322;SDS011;10319;52.206;20.996;2022-08-20T14:12:07;9.82;;;2.30;;
20322;SDS011;10319;52.206;20.996;2022-08-20T14:14:33;11.88;;;2.33;;
20322;SDS011;10319;52.206;20.996;2022-08-20T14:17:11;8.32;;;1.80;;
20322;SDS011;10319;52.206;20.996;2022-08-20T14:19:36;12.30;;;2.47;;
20322;SDS011;10319;52.206;20.996;2022-08-20T14:22:02;9.82;;;2.35;;
20322;SDS011;10319;52.206;20.996;2022-08-20T14:24:27;8.33;;;2.30;;
20322;SDS011;10319;52.206;20.996;2022-08-20T14:26:52;10.57;;;2.30;;
20322;SDS011;10319;52.206;20.996;2022-08-20T14:29:17;8.98;;;2.20;;
20322;SDS011;10319;52.206;20.996;2022-08-20T14:31:46;9.30;;;2.22;;
20322;SDS011;10319;52.206;20.996;2022-08-20T14:34:11;10.07;;;2.10;;
20322;SDS011;10319;52.206;20.996;2022-08-20T14:36:36;12.37;;;2.30;;